createdAt,value
2018-05-24T00:01:45.168Z,2.80
2018-05-24T00:06:47.756Z,2.40
2018-05-24T00:11:50.621Z,2.70
2018-05-24T00:16:54.011Z,3.00
2018-05-24T00:21:56.496Z,2.90
2018-05-24T00:26:58.992Z,2.80
2018-05-24T00:32:01.529Z,2.60
2018-05-24T00:37:04.040Z,2.73
2018-05-24T00:42:06.565Z,2.90
2018-05-24T00:47:09.082Z,2.80
2018-05-24T00:52:11.578Z,3.23
2018-05-24T00:57:14.108Z,3.30
2018-05-24T01:02:16.645Z,3.10
2018-05-24T01:07:19.282Z,2.90
2018-05-24T01:12:21.820Z,3.17
2018-05-24T01:17:25.016Z,2.80
2018-05-24T01:22:27.491Z,3.20
2018-05-24T01:27:30.001Z,2.97
2018-05-24T01:32:32.492Z,3.00
2018-05-24T01:37:47.954Z,3.17
2018-05-24T01:42:50.509Z,2.73
2018-05-24T01:47:53.020Z,2.97
2018-05-24T01:52:55.647Z,3.30
2018-05-24T01:57:58.099Z,3.30
2018-05-24T02:03:00.598Z,3.27
2018-05-24T02:08:03.116Z,3.23
2018-05-24T02:13:05.619Z,2.77
2018-05-24T02:18:08.105Z,3.20
2018-05-24T02:23:10.657Z,3.43
2018-05-24T02:28:13.504Z,3.30
2018-05-24T02:33:16.040Z,3.23
2018-05-24T02:38:18.830Z,3.40
2018-05-24T02:43:21.407Z,3.23
2018-05-24T02:48:23.967Z,3.30
2018-05-24T02:53:26.489Z,3.57
2018-05-24T03:03:37.572Z,2.67
2018-05-24T03:08:40.051Z,3.63
2018-05-24T03:13:44.784Z,3.40
2018-05-24T03:18:47.529Z,3.20
2018-05-24T03:23:50.067Z,2.90
2018-05-24T03:28:52.596Z,3.27
2018-05-24T03:33:55.479Z,3.20
2018-05-24T03:38:57.996Z,3.40
2018-05-24T03:44:00.573Z,3.40
2018-05-24T03:49:03.159Z,3.40
2018-05-24T03:54:05.629Z,3.50
2018-05-24T04:15:28.059Z,3.10
2018-05-24T04:20:30.541Z,3.13
2018-05-24T04:25:33.031Z,3.17
2018-05-24T04:30:35.565Z,3.53
2018-05-24T04:35:38.057Z,3.30
2018-05-24T04:40:40.562Z,3.00
2018-05-24T04:45:43.082Z,3.60
2018-05-24T04:50:45.604Z,3.60
2018-05-24T04:55:48.220Z,2.87
2018-05-24T05:00:50.862Z,3.40
2018-05-24T05:05:53.399Z,3.20
2018-05-24T05:10:55.905Z,3.07
2018-05-24T05:15:58.416Z,3.50
2018-05-24T05:26:28.289Z,3.00
2018-05-24T05:31:30.860Z,3.60
2018-05-24T05:36:33.652Z,3.40
2018-05-24T05:41:36.277Z,3.50
2018-05-24T05:46:38.782Z,3.43
2018-05-24T05:51:41.297Z,3.03
2018-05-24T05:56:43.912Z,3.27
2018-05-24T06:01:46.707Z,3.40
2018-05-24T06:06:49.194Z,3.30
2018-05-24T06:11:51.737Z,3.40
2018-05-24T06:16:54.248Z,3.07
2018-05-24T06:21:56.836Z,3.73
2018-05-24T06:26:59.300Z,3.43
2018-05-24T06:32:01.790Z,3.27
2018-05-24T06:37:04.294Z,3.00
2018-05-24T06:42:06.844Z,3.00
2018-05-24T06:47:09.352Z,3.47
2018-05-24T06:52:11.864Z,3.13
2018-05-24T06:57:14.405Z,3.17
2018-05-24T07:02:16.915Z,3.00
2018-05-24T07:07:19.425Z,3.63
2018-05-24T07:12:21.941Z,3.33
2018-05-24T07:17:25.297Z,3.03
2018-05-24T07:22:27.783Z,3.43
2018-05-24T07:27:30.254Z,3.07
2018-05-24T07:32:33.918Z,3.07
2018-05-24T07:37:36.414Z,3.30
2018-05-24T07:42:38.899Z,3.10
2018-05-24T07:47:41.416Z,3.20
2018-05-24T07:52:44.939Z,3.40
2018-05-24T07:57:47.563Z,3.03
2018-05-24T08:02:50.107Z,2.95
2018-05-24T08:07:52.615Z,3.25
2018-05-24T08:12:55.117Z,3.28
2018-05-24T08:17:57.588Z,3.60
2018-05-24T08:23:00.081Z,3.03
2018-05-24T08:28:02.600Z,2.60
2018-05-24T08:33:05.089Z,3.10
2018-05-24T08:38:07.584Z,2.92
2018-05-24T08:43:10.070Z,3.03
2018-05-24T08:48:12.632Z,3.00
2018-05-24T08:53:15.227Z,3.43
2018-05-24T08:58:17.719Z,3.40
2018-05-24T09:03:20.264Z,3.03
2018-05-24T09:08:22.847Z,3.00
2018-05-24T09:13:25.366Z,3.17
2018-05-24T09:18:27.860Z,3.35
2018-05-24T09:23:30.332Z,3.58
2018-05-24T09:28:32.847Z,3.43
2018-05-24T09:33:35.339Z,3.13
2018-05-24T09:38:37.834Z,3.10
2018-05-24T09:43:40.337Z,3.23
2018-05-24T09:48:42.903Z,3.00
2018-05-24T09:53:45.495Z,2.83
2018-05-24T09:58:48.023Z,2.92
2018-05-24T10:03:50.562Z,3.40
2018-05-24T10:08:53.095Z,2.97
2018-05-24T10:13:55.717Z,2.80
2018-05-24T10:18:58.239Z,2.73
2018-05-24T10:24:00.696Z,2.83
2018-05-24T10:29:03.306Z,2.67
2018-05-24T10:34:05.811Z,2.40
2018-05-24T10:39:08.588Z,3.03
2018-05-24T10:44:11.080Z,2.43
2018-05-24T10:49:13.595Z,2.50
2018-05-24T10:54:16.168Z,2.63
2018-05-24T10:59:18.709Z,2.37
2018-05-24T11:04:21.320Z,2.63
2018-05-24T11:09:23.970Z,3.10
2018-05-24T11:14:26.493Z,2.17
2018-05-24T11:19:29.107Z,2.80
2018-05-24T11:24:31.622Z,2.17
2018-05-24T11:29:34.114Z,2.43
2018-05-24T11:34:36.651Z,2.03
2018-05-24T11:39:41.406Z,1.90
2018-05-24T11:44:43.821Z,2.17
2018-05-24T11:49:46.331Z,2.00
2018-05-24T11:54:48.891Z,2.20
2018-05-24T11:59:51.549Z,2.43
2018-05-24T12:04:54.020Z,2.83
2018-05-24T12:09:56.643Z,2.10
2018-05-24T12:14:59.283Z,2.33
2018-05-24T12:20:01.808Z,2.70
2018-05-24T12:25:09.881Z,2.20
2018-05-24T12:30:12.659Z,2.33
2018-05-24T12:35:15.385Z,1.93
2018-05-24T12:40:17.825Z,2.10
2018-05-24T12:45:20.525Z,2.33
2018-05-24T12:50:23.018Z,2.13
2018-05-24T12:55:25.569Z,2.30
2018-05-24T13:00:28.088Z,2.67
2018-05-24T13:05:30.648Z,2.13
2018-05-24T13:10:33.143Z,2.23
2018-05-24T13:15:35.622Z,2.13
2018-05-24T13:20:38.108Z,2.30
2018-05-24T13:25:40.995Z,2.17
2018-05-24T13:30:43.489Z,1.90
2018-05-24T13:35:46.015Z,2.00
2018-05-24T13:40:48.984Z,2.43
2018-05-24T13:45:51.869Z,1.90
2018-05-24T13:50:54.664Z,2.57
2018-05-24T13:55:57.949Z,2.03
2018-05-24T14:01:00.457Z,2.13
2018-05-24T14:06:02.965Z,1.93
2018-05-24T14:11:05.466Z,2.10
2018-05-24T14:16:07.919Z,2.20
2018-05-24T14:21:10.418Z,1.97
2018-05-24T14:26:12.935Z,2.10
2018-05-24T14:31:15.421Z,2.13
2018-05-24T14:36:18.091Z,2.23
2018-05-24T14:41:21.291Z,2.60
2018-05-24T14:46:23.871Z,2.00
2018-05-24T14:51:26.576Z,2.43
2018-05-24T14:56:29.102Z,2.50
2018-05-24T15:01:31.613Z,2.50
2018-05-24T15:06:34.133Z,2.50
2018-05-24T15:11:37.385Z,2.23
2018-05-24T15:16:39.899Z,2.43
2018-05-24T15:21:42.398Z,2.20
2018-05-24T15:26:44.901Z,2.60
2018-05-24T15:31:48.080Z,2.43
2018-05-24T15:36:50.585Z,2.40
2018-05-24T15:41:53.480Z,2.30
2018-05-24T15:46:56.256Z,2.10
2018-05-24T15:51:58.848Z,2.63
2018-05-24T15:57:01.349Z,2.43
2018-05-24T16:02:03.860Z,2.30
2018-05-24T16:07:06.357Z,2.30
2018-05-24T16:12:08.850Z,2.53
2018-05-24T16:17:11.349Z,2.20
2018-05-24T16:22:13.823Z,2.30
2018-05-24T16:27:16.336Z,2.20
2018-05-24T16:32:18.859Z,2.20
2018-05-24T16:37:21.408Z,2.40
2018-05-24T16:42:23.972Z,2.33
2018-05-24T16:47:26.524Z,2.33
2018-05-24T16:52:29.065Z,2.23
2018-05-24T16:57:31.562Z,2.50
2018-05-24T17:02:34.044Z,2.07
2018-05-24T17:07:37.095Z,2.30
2018-05-24T17:12:39.746Z,2.67
2018-05-24T17:17:42.170Z,2.27
2018-05-24T17:22:44.677Z,2.23
2018-05-24T17:27:47.173Z,2.30
2018-05-24T17:32:49.756Z,2.57
2018-05-24T17:37:52.654Z,2.40
2018-05-24T17:42:55.833Z,2.20
2018-05-24T17:47:58.528Z,2.43
2018-05-24T17:53:02.252Z,2.47
2018-05-24T17:58:04.847Z,2.27
2018-05-24T18:03:07.330Z,2.70
2018-05-24T18:08:09.814Z,2.43
2018-05-24T18:13:12.367Z,2.80
2018-05-24T18:18:14.884Z,2.73
2018-05-24T18:23:17.809Z,2.67
2018-05-24T18:28:22.204Z,2.03
2018-05-24T18:33:24.728Z,2.50
2018-05-24T18:38:27.357Z,2.30
2018-05-24T18:43:31.091Z,2.43
2018-05-24T18:48:56.303Z,2.20
2018-05-24T18:54:00.104Z,2.30
2018-05-24T18:59:03.126Z,2.23
2018-05-24T19:04:10.108Z,2.33
2018-05-24T19:09:14.750Z,2.70
2018-05-24T19:14:17.267Z,2.70
2018-05-24T19:19:20.044Z,2.37
2018-05-24T19:24:24.931Z,2.57
2018-05-24T19:29:29.348Z,2.33
2018-05-24T19:34:33.646Z,2.70
2018-05-24T19:39:36.435Z,2.47
2018-05-24T19:44:42.362Z,2.80
2018-05-24T19:49:48.518Z,2.60
2018-05-24T19:54:52.146Z,2.53
2018-05-24T19:59:54.858Z,2.90
2018-05-24T20:04:59.871Z,2.90
2018-05-24T20:10:02.444Z,2.67
2018-05-24T20:15:05.069Z,2.73
2018-05-24T20:20:07.623Z,2.80
2018-05-24T20:25:10.054Z,3.20
2018-05-24T20:30:12.546Z,2.87
2018-05-24T20:35:15.072Z,2.70
2018-05-24T20:40:17.609Z,2.93
2018-05-24T20:45:20.133Z,2.70
2018-05-24T20:50:22.687Z,2.80
2018-05-24T20:55:26.975Z,2.40
2018-05-24T21:00:30.008Z,2.87
2018-05-24T21:05:34.290Z,3.13
2018-05-24T21:10:36.800Z,2.70
2018-05-24T21:15:39.846Z,2.80
2018-05-24T21:20:42.463Z,3.10
2018-05-24T21:25:45.701Z,3.20
2018-05-24T21:30:48.907Z,2.77
2018-05-24T21:35:51.824Z,3.07
2018-05-24T21:40:56.536Z,3.20
2018-05-24T21:45:59.090Z,2.70
2018-05-24T21:51:01.619Z,3.33
2018-05-24T21:56:04.359Z,2.73
2018-05-24T22:01:06.960Z,3.13
2018-05-24T22:06:09.498Z,2.90
2018-05-24T22:11:11.973Z,3.07
2018-05-24T22:16:14.519Z,2.90
2018-05-24T22:21:16.986Z,2.87
2018-05-24T22:26:19.551Z,3.20
2018-05-24T22:31:22.073Z,3.37
2018-05-24T22:36:24.598Z,3.20
2018-05-24T22:41:27.107Z,3.00
2018-05-24T22:46:29.637Z,3.10
2018-05-24T22:51:32.139Z,3.30
2018-05-24T22:56:34.676Z,3.00
2018-05-24T23:01:37.231Z,3.17
2018-05-24T23:06:39.750Z,3.10
2018-05-24T23:11:42.249Z,3.70
2018-05-24T23:16:44.755Z,2.93
2018-05-24T23:21:47.329Z,3.33
2018-05-24T23:26:49.847Z,3.77
2018-05-24T23:31:52.453Z,2.90
2018-05-24T23:36:54.958Z,3.50
2018-05-24T23:41:57.536Z,3.43
2018-05-24T23:47:00.130Z,3.37
2018-05-24T23:52:02.664Z,3.10
2018-05-24T23:57:05.209Z,2.83
